createdAt,value
2022-09-28T00:00:22.061Z,9.95
2022-09-28T00:02:53.585Z,8.52
2022-09-28T00:05:29.262Z,6.07
2022-09-28T00:08:14.472Z,5.97
2022-09-28T00:10:43.411Z,5.20
2022-09-28T00:13:13.645Z,6.90
2022-09-28T00:15:52.692Z,7.78
2022-09-28T00:18:24.820Z,4.55
2022-09-28T00:21:19.928Z,3.42
2022-09-28T00:24:18.216Z,4.63
2022-09-28T00:26:55.419Z,4.38
2022-09-28T00:29:39.997Z,2.05
2022-09-28T00:32:14.846Z,5.40
2022-09-28T00:34:49.983Z,2.30
2022-09-28T00:37:25.769Z,4.10
2022-09-28T00:40:02.023Z,2.95
2022-09-28T00:42:33.764Z,2.00
2022-09-28T00:45:15.141Z,4.38
2022-09-28T00:47:52.839Z,4.85
2022-09-28T00:50:34.455Z,2.42
2022-09-28T00:53:20.188Z,2.33
2022-09-28T00:56:04.177Z,2.53
2022-09-28T00:58:36.651Z,1.42
2022-09-28T01:01:09.419Z,1.95
2022-09-28T01:03:39.939Z,3.33
2022-09-28T01:06:12.683Z,3.22
2022-09-28T01:08:47.471Z,2.25
2022-09-28T01:11:23.540Z,3.17
2022-09-28T01:13:54.528Z,3.25
2022-09-28T01:16:57.668Z,3.38
2022-09-28T01:20:05.204Z,2.63
2022-09-28T01:25:58.754Z,2.00
2022-09-28T01:28:35.452Z,2.53
2022-09-28T01:31:17.801Z,8.55
2022-09-28T01:33:52.014Z,2.97
2022-09-28T01:36:46.903Z,3.65
2022-09-28T01:39:34.644Z,2.88
2022-09-28T01:42:19.278Z,2.50
2022-09-28T01:44:57.078Z,3.10
2022-09-28T01:47:33.771Z,2.75
2022-09-28T01:50:26.157Z,2.80
2022-09-28T01:53:20.235Z,2.63
2022-09-28T01:55:55.120Z,3.10
2022-09-28T01:59:11.268Z,3.38
2022-09-28T02:02:10.081Z,4.47
2022-09-28T02:05:24.777Z,2.42
2022-09-28T02:08:18.782Z,2.65
2022-09-28T02:11:03.720Z,2.55
2022-09-28T02:14:04.233Z,3.22
2022-09-28T02:16:47.638Z,1.98
2022-09-28T02:19:37.135Z,4.22
2022-09-28T02:22:30.072Z,3.05
2022-09-28T02:25:06.932Z,2.45
2022-09-28T02:28:06.099Z,4.03
2022-09-28T02:30:38.733Z,4.55
2022-09-28T02:33:44.421Z,3.05
2022-09-28T02:36:16.397Z,4.63
2022-09-28T02:38:48.144Z,1.58
2022-09-28T02:41:36.243Z,4.10
2022-09-28T02:44:44.707Z,4.00
2022-09-28T02:48:24.048Z,3.42
2022-09-28T02:51:22.217Z,4.05
2022-09-28T02:54:07.164Z,5.07
2022-09-28T02:56:47.150Z,6.22
2022-09-28T02:59:44.529Z,5.22
2022-09-28T03:02:35.256Z,6.95
2022-09-28T03:05:33.016Z,4.60
2022-09-28T03:08:17.991Z,4.88
2022-09-28T03:11:12.164Z,3.08
2022-09-28T03:13:42.685Z,9.27
2022-09-28T03:16:21.442Z,7.03
2022-09-28T03:18:55.109Z,5.75
2022-09-28T03:21:28.024Z,4.43
2022-09-28T03:23:59.888Z,4.57
2022-09-28T03:26:33.371Z,4.00
2022-09-28T03:29:03.508Z,5.82
2022-09-28T03:31:34.038Z,3.33
2022-09-28T03:34:05.120Z,4.13
2022-09-28T03:36:38.011Z,4.97
2022-09-28T03:39:13.183Z,4.43
2022-09-28T03:42:03.045Z,4.30
2022-09-28T03:47:13.677Z,3.50
2022-09-28T03:49:45.687Z,4.07
2022-09-28T03:52:23.718Z,4.43
2022-09-28T03:54:54.743Z,5.75
2022-09-28T03:57:27.660Z,3.88
2022-09-28T04:00:03.726Z,3.30
2022-09-28T04:02:45.583Z,4.97
2022-09-28T04:05:19.994Z,3.85
2022-09-28T04:07:53.927Z,4.40
2022-09-28T04:10:24.023Z,4.82
2022-09-28T04:12:59.377Z,5.18
2022-09-28T04:15:29.709Z,4.80
2022-09-28T04:18:01.650Z,6.03
2022-09-28T04:21:11.069Z,3.47
2022-09-28T04:23:59.366Z,5.30
2022-09-28T04:26:29.076Z,5.38
2022-09-28T04:29:17.210Z,5.22
2022-09-28T04:31:59.821Z,7.03
2022-09-28T04:34:43.761Z,4.78
2022-09-28T04:37:15.972Z,6.38
2022-09-28T04:39:48.520Z,8.00
2022-09-28T04:42:21.907Z,6.72
2022-09-28T04:47:25.807Z,8.00
2022-09-28T04:50:14.016Z,10.18
2022-09-28T04:53:03.961Z,13.60
2022-09-28T04:55:38.967Z,7.68
2022-09-28T04:58:11.178Z,10.77
2022-09-28T05:00:43.996Z,11.82
2022-09-28T05:03:35.981Z,5.85
2022-09-28T05:09:14.936Z,7.15
2022-09-28T05:11:47.765Z,8.25
2022-09-28T05:14:46.674Z,36.72
2022-09-28T05:17:24.143Z,82.85
2022-09-28T05:20:07.790Z,69.90
2022-09-28T05:22:42.952Z,88.95
2022-09-28T05:25:14.949Z,104.40
2022-09-28T05:28:06.543Z,16.30
2022-09-28T05:31:03.696Z,5.85
2022-09-28T05:33:54.964Z,7.80
2022-09-28T05:36:23.218Z,11.93
2022-09-28T05:38:57.787Z,7.80
2022-09-28T05:41:29.379Z,6.93
2022-09-28T05:44:03.346Z,8.25
2022-09-28T05:46:41.187Z,6.82
2022-09-28T05:49:14.391Z,8.57
2022-09-28T05:51:43.272Z,8.07
2022-09-28T05:54:16.004Z,7.38
2022-09-28T05:56:50.792Z,10.57
2022-09-28T05:59:20.138Z,5.80
2022-09-28T06:01:51.738Z,5.72
2022-09-28T06:04:21.272Z,8.32
2022-09-28T06:06:51.624Z,7.18
2022-09-28T06:09:26.034Z,6.50
2022-09-28T06:12:20.181Z,10.48
2022-09-28T06:15:00.069Z,8.65
2022-09-28T06:17:37.619Z,13.32
2022-09-28T06:20:48.045Z,9.05
2022-09-28T06:23:21.990Z,10.70
2022-09-28T06:25:53.267Z,8.35
2022-09-28T06:28:23.062Z,7.32
2022-09-28T06:30:54.310Z,4.68
2022-09-28T06:33:27.010Z,4.85
2022-09-28T06:35:57.340Z,7.55
2022-09-28T06:38:30.256Z,4.95
2022-09-28T06:41:00.462Z,6.00
2022-09-28T06:43:34.247Z,5.05
2022-09-28T06:46:18.176Z,4.70
2022-09-28T06:49:10.437Z,6.07
2022-09-28T06:52:02.937Z,9.27
2022-09-28T06:54:54.904Z,7.45
2022-09-28T06:57:29.989Z,9.43
2022-09-28T07:00:14.593Z,11.43
2022-09-28T07:02:47.185Z,31.13
2022-09-28T07:05:42.411Z,16.40
2022-09-28T07:08:38.133Z,12.55
2022-09-28T07:11:36.228Z,13.15
2022-09-28T07:14:31.463Z,31.65
2022-09-28T07:17:13.770Z,12.57
2022-09-28T07:19:47.621Z,8.60
2022-09-28T07:22:19.379Z,6.75
2022-09-28T07:24:53.113Z,12.25
2022-09-28T07:27:51.701Z,11.55
2022-09-28T07:30:37.784Z,9.75
2022-09-28T07:33:21.665Z,11.15
2022-09-28T07:36:02.907Z,9.10
2022-09-28T07:38:36.921Z,10.27
2022-09-28T07:41:14.567Z,7.88
2022-09-28T07:43:53.168Z,7.25
2022-09-28T07:46:24.780Z,7.55
2022-09-28T07:49:01.647Z,12.98
2022-09-28T07:51:38.280Z,8.75
2022-09-28T07:54:41.039Z,6.85
2022-09-28T08:00:40.968Z,6.45
2022-09-28T08:03:15.933Z,6.97
2022-09-28T08:05:53.945Z,5.00
2022-09-28T08:08:26.488Z,3.75
2022-09-28T08:10:58.968Z,6.05
2022-09-28T08:14:04.713Z,8.82
2022-09-28T08:17:26.719Z,13.18
2022-09-28T08:20:30.955Z,16.08
2022-09-28T08:23:13.540Z,11.80
2022-09-28T08:25:50.190Z,7.82
2022-09-28T08:28:27.354Z,6.50
2022-09-28T08:31:01.789Z,10.65
2022-09-28T08:33:39.290Z,10.57
2022-09-28T08:36:31.559Z,8.45
2022-09-28T08:39:22.351Z,5.90
2022-09-28T08:42:24.543Z,8.23
2022-09-28T08:45:23.111Z,8.88
2022-09-28T08:49:23.661Z,8.32
2022-09-28T08:52:30.790Z,15.82
2022-09-28T08:55:36.601Z,9.98
2022-09-28T08:58:22.688Z,4.18
2022-09-28T09:00:52.840Z,5.78
2022-09-28T09:03:37.130Z,4.78
2022-09-28T09:06:46.748Z,6.00
2022-09-28T09:09:57.711Z,7.95
2022-09-28T09:13:01.962Z,10.45
2022-09-28T09:15:55.279Z,9.70
2022-09-28T09:19:00.883Z,4.68
2022-09-28T09:22:19.052Z,3.45
2022-09-28T09:24:56.567Z,4.18
2022-09-28T09:27:37.453Z,4.10
2022-09-28T09:30:20.563Z,3.72
2022-09-28T09:33:24.483Z,6.10
2022-09-28T09:36:51.816Z,3.00
2022-09-28T09:40:14.691Z,3.45
2022-09-28T09:43:35.291Z,2.20
2022-09-28T09:46:39.619Z,2.83
2022-09-28T09:49:30.484Z,3.08
2022-09-28T09:52:17.331Z,4.13
2022-09-28T09:55:06.486Z,6.25
2022-09-28T09:57:57.389Z,6.50
2022-09-28T10:00:49.357Z,6.93
2022-09-28T10:03:31.590Z,5.38
2022-09-28T10:06:19.443Z,4.50
2022-09-28T10:09:03.231Z,2.55
2022-09-28T10:11:49.416Z,3.65
2022-09-28T10:14:26.149Z,2.45
2022-09-28T10:17:07.684Z,8.20
2022-09-28T10:19:57.363Z,2.90
2022-09-28T10:22:44.953Z,5.82
2022-09-28T10:25:20.696Z,3.03
2022-09-28T10:27:53.335Z,2.67
2022-09-28T10:30:28.666Z,4.28
2022-09-28T10:33:06.013Z,3.72
2022-09-28T10:35:47.823Z,5.78
2022-09-28T10:38:20.330Z,3.88
2022-09-28T10:41:21.607Z,3.50
2022-09-28T10:44:18.075Z,4.30
2022-09-28T10:47:10.704Z,2.83
2022-09-28T10:49:47.106Z,5.03
2022-09-28T10:52:47.564Z,6.75
2022-09-28T10:55:39.452Z,3.95
2022-09-28T10:58:28.817Z,4.43
2022-09-28T11:01:10.519Z,5.57
2022-09-28T11:03:58.874Z,4.07
2022-09-28T11:06:36.400Z,9.40
2022-09-28T11:09:39.656Z,4.80
2022-09-28T11:12:17.044Z,5.68
2022-09-28T11:14:52.711Z,5.53
2022-09-28T11:17:44.658Z,5.50
2022-09-28T11:20:37.731Z,5.43
2022-09-28T11:23:27.581Z,9.90
2022-09-28T11:26:18.618Z,6.85
2022-09-28T11:28:52.629Z,6.65
2022-09-28T11:31:39.979Z,8.63
2022-09-28T11:34:41.820Z,5.28
2022-09-28T11:37:45.664Z,6.95
2022-09-28T11:40:35.783Z,5.95
2022-09-28T11:43:19.838Z,6.78
2022-09-28T11:47:01.507Z,7.32
2022-09-28T11:49:49.997Z,7.60
2022-09-28T11:52:44.671Z,9.30
2022-09-28T11:55:29.547Z,5.57
2022-09-28T11:58:36.537Z,7.07
2022-09-28T12:01:38.220Z,6.05
2022-09-28T12:04:23.158Z,6.00
2022-09-28T12:07:19.981Z,9.27
2022-09-28T12:10:15.376Z,7.18
2022-09-28T12:13:06.054Z,13.75
2022-09-28T12:16:32.348Z,6.72
2022-09-28T12:19:20.691Z,8.38
2022-09-28T12:22:00.966Z,6.60
2022-09-28T12:24:46.309Z,7.68
2022-09-28T12:27:33.700Z,8.30
2022-09-28T12:30:18.275Z,8.55
2022-09-28T12:33:22.749Z,9.20
2022-09-28T12:36:30.914Z,6.05
2022-09-28T12:39:27.154Z,7.03
2022-09-28T12:45:38.668Z,7.60
2022-09-28T12:49:21.679Z,6.80
2022-09-28T12:52:06.037Z,7.00
2022-09-28T12:55:00.241Z,11.15
2022-09-28T12:57:43.022Z,10.98
2022-09-28T13:00:25.289Z,15.18
2022-09-28T13:03:37.878Z,10.17
2022-09-28T13:06:38.123Z,7.03
2022-09-28T13:09:20.541Z,12.27
2022-09-28T13:12:35.499Z,8.35
2022-09-28T13:15:23.598Z,7.65
2022-09-28T13:18:12.837Z,7.15
2022-09-28T13:21:04.708Z,6.25
2022-09-28T13:23:45.826Z,6.72
2022-09-28T13:26:38.293Z,6.57
2022-09-28T13:29:13.094Z,6.47
2022-09-28T13:31:56.044Z,5.63
2022-09-28T13:34:32.249Z,5.65
2022-09-28T13:37:27.824Z,9.07
2022-09-28T13:39:59.041Z,5.97
2022-09-28T13:43:08.403Z,7.85
2022-09-28T13:46:26.716Z,4.70
2022-09-28T13:49:12.589Z,9.13
2022-09-28T13:52:13.619Z,8.07
2022-09-28T13:55:19.917Z,11.00
2022-09-28T13:57:56.908Z,7.05
2022-09-28T14:00:39.732Z,9.57
2022-09-28T14:06:05.442Z,7.60
2022-09-28T14:09:04.116Z,7.55
2022-09-28T14:11:42.332Z,6.63
2022-09-28T14:14:17.147Z,7.97
2022-09-28T14:16:46.741Z,10.07
2022-09-28T14:19:38.816Z,7.35
2022-09-28T14:22:21.035Z,7.03
2022-09-28T14:24:58.178Z,5.85
2022-09-28T14:27:28.312Z,8.38
2022-09-28T14:30:17.530Z,7.50
2022-09-28T14:33:00.399Z,13.70
2022-09-28T14:35:52.227Z,9.63
2022-09-28T14:38:45.011Z,17.95
2022-09-28T14:41:36.868Z,18.02
2022-09-28T14:44:06.668Z,18.42
2022-09-28T14:46:47.932Z,18.00
2022-09-28T14:49:20.177Z,18.23
2022-09-28T14:51:49.371Z,8.50
2022-09-28T14:54:29.309Z,19.00
2022-09-28T14:57:22.256Z,18.70
2022-09-28T14:59:52.925Z,15.77
2022-09-28T15:02:36.812Z,17.02
2022-09-28T15:07:58.696Z,20.45
2022-09-28T15:10:46.266Z,25.02
2022-09-28T15:13:25.884Z,20.35
2022-09-28T15:19:41.544Z,24.85
2022-09-28T15:22:25.393Z,12.10
2022-09-28T15:25:06.576Z,21.77
2022-09-28T15:27:38.460Z,32.40
2022-09-28T15:30:28.345Z,21.55
2022-09-28T15:33:44.152Z,22.85
2022-09-28T15:36:28.164Z,27.00
2022-09-28T15:39:05.211Z,18.40
2022-09-28T15:41:36.468Z,14.20
2022-09-28T15:44:29.767Z,14.95
2022-09-28T15:47:21.810Z,13.82
2022-09-28T15:50:06.193Z,14.60
2022-09-28T15:53:08.001Z,24.35
2022-09-28T15:55:40.147Z,13.85
2022-09-28T15:58:25.701Z,19.48
2022-09-28T16:01:24.931Z,18.75
2022-09-28T16:03:59.377Z,24.63
2022-09-28T16:06:29.979Z,15.82
2022-09-28T16:09:04.679Z,11.73
2022-09-28T16:11:41.212Z,11.43
2022-09-28T16:14:24.111Z,10.68
2022-09-28T16:16:59.651Z,14.43
2022-09-28T16:19:43.999Z,12.85
2022-09-28T16:24:59.662Z,13.07
2022-09-28T16:27:46.066Z,9.82
2022-09-28T16:30:47.653Z,12.32
2022-09-28T16:33:51.721Z,10.43
2022-09-28T16:36:29.081Z,17.08
2022-09-28T16:39:01.940Z,14.23
2022-09-28T16:41:32.815Z,13.25
2022-09-28T16:44:04.321Z,15.88
2022-09-28T16:46:39.654Z,15.13
2022-09-28T16:49:20.900Z,21.60
2022-09-28T16:52:03.719Z,17.52
2022-09-28T16:54:52.549Z,9.85
2022-09-28T16:57:23.926Z,11.48
2022-09-28T16:59:54.876Z,13.13
2022-09-28T17:02:45.609Z,11.93
2022-09-28T17:05:20.836Z,10.35
2022-09-28T17:08:06.396Z,14.02
2022-09-28T17:11:18.122Z,20.90
2022-09-28T17:13:50.351Z,13.98
2022-09-28T17:16:49.375Z,15.40
2022-09-28T17:19:34.733Z,17.50
2022-09-28T17:22:06.506Z,9.98
2022-09-28T17:24:35.429Z,11.60
2022-09-28T17:27:07.935Z,13.27
2022-09-28T17:29:39.400Z,13.23
2022-09-28T17:32:19.900Z,13.65
2022-09-28T17:35:00.781Z,14.00
2022-09-28T17:37:30.558Z,12.27
2022-09-28T17:40:02.211Z,16.52
2022-09-28T17:45:20.087Z,12.68
2022-09-28T17:47:51.866Z,16.88
2022-09-28T17:50:33.207Z,10.88
2022-09-28T17:53:08.235Z,11.50
2022-09-28T17:55:42.185Z,16.17
2022-09-28T17:58:22.124Z,11.15
2022-09-28T18:03:28.896Z,12.23
2022-09-28T18:06:09.940Z,20.65
2022-09-28T18:08:40.137Z,18.70
2022-09-28T18:11:12.632Z,17.98
2022-09-28T18:13:47.138Z,13.80
2022-09-28T18:16:19.775Z,15.68
2022-09-28T18:18:56.918Z,15.07
2022-09-28T18:21:29.050Z,11.18
2022-09-28T18:24:02.733Z,11.40
2022-09-28T18:26:30.842Z,9.02
2022-09-28T18:29:04.165Z,12.85
2022-09-28T18:31:42.203Z,12.40
2022-09-28T18:34:18.455Z,11.95
2022-09-28T18:36:53.703Z,13.43
2022-09-28T18:39:25.623Z,13.23
2022-09-28T18:42:09.479Z,11.45
2022-09-28T18:44:39.164Z,11.80
2022-09-28T18:47:19.230Z,9.93
2022-09-28T18:49:53.179Z,12.38
2022-09-28T18:52:26.072Z,10.38
2022-09-28T18:54:58.560Z,16.15
2022-09-28T18:57:32.874Z,14.57
2022-09-28T19:00:07.200Z,13.95
2022-09-28T19:02:44.448Z,18.45
2022-09-28T19:05:19.634Z,20.38
2022-09-28T19:07:51.885Z,14.75
2022-09-28T19:10:26.664Z,13.43
2022-09-28T19:12:59.171Z,11.93
2022-09-28T19:15:34.071Z,14.00
2022-09-28T19:18:04.070Z,14.57
2022-09-28T19:20:39.232Z,11.98
2022-09-28T19:23:12.136Z,11.57
2022-09-28T19:25:49.073Z,14.25
2022-09-28T19:28:21.256Z,11.52
2022-09-28T19:33:32.330Z,22.80
2022-09-28T19:36:08.580Z,28.27
2022-09-28T19:38:40.454Z,20.20
2022-09-28T19:41:13.012Z,28.75
2022-09-28T19:43:43.723Z,13.13
2022-09-28T19:46:13.752Z,11.77
2022-09-28T19:48:46.092Z,16.52
2022-09-28T19:51:17.041Z,13.63
2022-09-28T19:53:50.241Z,14.52
2022-09-28T19:56:21.247Z,13.68
2022-09-28T19:58:52.311Z,15.75
2022-09-28T20:01:23.247Z,13.02
2022-09-28T20:03:52.896Z,13.15
2022-09-28T20:06:29.378Z,24.55
2022-09-28T20:11:33.278Z,19.20
2022-09-28T20:14:13.398Z,30.55
2022-09-28T20:16:42.249Z,24.77
2022-09-28T20:19:13.315Z,13.98
2022-09-28T20:21:44.077Z,20.05
2022-09-28T20:24:26.920Z,18.05
2022-09-28T20:26:58.394Z,12.23
2022-09-28T20:29:33.814Z,14.27
2022-09-28T20:32:09.175Z,14.00
2022-09-28T20:34:41.538Z,17.90
2022-09-28T20:37:16.455Z,14.70
2022-09-28T20:42:18.911Z,17.92
2022-09-28T20:44:49.169Z,28.43
2022-09-28T20:47:19.324Z,31.02
2022-09-28T20:49:51.208Z,17.38
2022-09-28T20:52:24.336Z,12.93
2022-09-28T20:54:56.435Z,14.55
2022-09-28T20:57:29.322Z,18.30
2022-09-28T21:00:00.092Z,16.33
2022-09-28T21:02:30.280Z,25.42
2022-09-28T21:05:01.479Z,42.15
2022-09-28T21:07:34.538Z,67.20
2022-09-28T21:10:08.903Z,64.35
2022-09-28T21:12:43.005Z,31.73
2022-09-28T21:15:17.325Z,57.10
2022-09-28T21:17:47.497Z,19.17
2022-09-28T21:20:17.464Z,14.73
2022-09-28T21:22:48.690Z,13.32
2022-09-28T21:25:20.142Z,10.05
2022-09-28T21:27:54.153Z,11.98
2022-09-28T21:30:25.269Z,7.72
2022-09-28T21:32:59.228Z,12.93
2022-09-28T21:35:30.430Z,9.68
2022-09-28T21:38:03.170Z,10.57
2022-09-28T21:40:37.395Z,8.80
2022-09-28T21:43:10.323Z,12.40
2022-09-28T21:45:43.654Z,13.40
2022-09-28T21:48:14.895Z,11.48
2022-09-28T21:50:58.167Z,12.48
2022-09-28T21:53:32.471Z,10.73
2022-09-28T21:56:02.476Z,12.38
2022-09-28T21:58:37.791Z,16.88
2022-09-28T22:03:57.269Z,12.07
2022-09-28T22:06:31.385Z,10.88
2022-09-28T22:09:00.195Z,10.88
2022-09-28T22:11:36.475Z,14.73
2022-09-28T22:14:21.094Z,11.88
2022-09-28T22:16:54.827Z,9.98
2022-09-28T22:19:24.367Z,9.27
2022-09-28T22:21:55.797Z,11.52
2022-09-28T22:24:26.345Z,15.50
2022-09-28T22:27:00.835Z,16.55
2022-09-28T22:29:30.855Z,10.90
2022-09-28T22:32:05.336Z,14.48
2022-09-28T22:34:36.624Z,11.98
2022-09-28T22:37:09.695Z,16.33
2022-09-28T22:39:43.236Z,15.48
2022-09-28T22:42:16.731Z,12.45
2022-09-28T22:44:47.399Z,10.18
2022-09-28T22:47:16.558Z,12.50
2022-09-28T22:49:47.230Z,11.95
2022-09-28T22:55:00.924Z,10.43
2022-09-28T22:57:29.125Z,11.80
2022-09-28T23:00:03.462Z,10.38
2022-09-28T23:02:37.817Z,17.92
2022-09-28T23:05:09.403Z,8.82
2022-09-28T23:07:44.253Z,8.82
2022-09-28T23:10:16.070Z,7.82
2022-09-28T23:12:50.901Z,11.57
2022-09-28T23:15:25.919Z,9.88
2022-09-28T23:17:57.262Z,10.18
2022-09-28T23:20:27.961Z,14.00
2022-09-28T23:22:55.652Z,14.07
2022-09-28T23:25:31.298Z,12.07
2022-09-28T23:28:03.182Z,16.35
2022-09-28T23:30:34.904Z,8.30
2022-09-28T23:33:10.581Z,7.97
2022-09-28T23:35:48.528Z,7.32
2022-09-28T23:38:21.504Z,15.32
2022-09-28T23:40:54.576Z,8.82
2022-09-28T23:43:27.049Z,12.50
2022-09-28T23:46:00.381Z,9.98
2022-09-28T23:48:36.029Z,8.27
2022-09-28T23:51:07.655Z,9.63
2022-09-28T23:53:40.678Z,6.95
2022-09-28T23:56:15.677Z,9.00
